Yarrow Point, Washington
Current Conditions -  °F | °C
As of 11:53 AM on Monday 24 Nov 2014 (Local Time) from KBFI Reporting Station
Overcast Overcast  
Wind Chill: 45°   Ceiling: 3600
Heat Index: 48°   Visibility: 10mi
Dew Point: 37°   Wind: 6mph
Humidity: 66%   Direction: 140°SE
Pressure: 30.29"   Gusts: NA
Location:  47.6186°N, 122.204°W
Report Text: KBFI 241953Z 14005KT 10SM OVC036 09/03 A3029 RMK AO2 SLP255 T00890028
Loading
Personal Weather Stations






























Interactive Weather Map New forecast layout! Learn more

10-Day Weather Forecast

Advertisements
Track Severe Weather on mobile